Accueil
METAR-TAF:

METAR-TAF

Aéroports :

Aéroport international Abraham González

Ciudad Juárez, Mexique

latitude: 31-38N, longitude: 106-26W, altitude: 1171 m

Observation

Le bulletin a été fait il y a 46 minutes, à 12:46 UTC
Vent calme
Température 2°C
Humidité 93%
Pression 1024 hPa
Visibilité: 0.4 km
bancs de brouillard

METAR: MMCS 121246Z 00000KT 1/4SM BCFG VV008 02/01 A3024 RMK 8//// RTS

Heure: 06:32 (13:32 UTC)

Prévision

Le bulletin a été fait il y a 19 minutes, à 13:13 UTC
Prévision valable du 12 à 13 UTC au 13 à 06 UTC
Vent kt de nord
Visibilité: 0.4 km
à une hauteur de 500 ft
brouillard
A partir de 12 à 1500 UTC
Vent kt de nord
Visibilité: 4.8 km
Nuages fragmentés à une hauteur de 1000 ft
brume
A partir de 12 à 1600 UTC
Vent 10 kt de ouest
Visibilité: 10 km
Nuages fragmentés à une hauteur de 25000 ft

TAF: MMCS 121313Z 1213/1306 00000KT 1/4SM FG VV005 FM121500 00000KT 3SM BR BKN010 FM121600 28010KT P6SM BKN250

Observations et prévisions météorologiques de plus de 4000 aéroports (messages METAR et TAF).

Les stations disponibles sont représentées par des disques jaunes et rouges sur la carte.

Passer la souris dessus pour voir le nom de la station.

Cliquer dessus pour voir les observations et prévisions météorologiques.

Pour changer de carte: cliquez sur les boutons verts avec une croix noire pour zoomer, sur le bouton vert avec un tiret pour effectuer un zoom arrière, ou sur les flèches vertes pour les cartes adjacentes.


METAR-TAF: